createdAt,value
2023-04-15T03:39:08.755Z,92.30
2023-04-15T03:49:44.276Z,99.70
2023-04-15T04:00:20.614Z,99.90
2023-04-15T04:10:56.211Z,99.90
2023-04-15T04:21:34.038Z,99.90
2023-04-15T04:32:10.504Z,99.90
2023-04-15T04:42:46.371Z,99.90
2023-04-15T04:53:22.333Z,99.90
2023-04-15T05:03:58.047Z,99.90
2023-04-15T05:14:33.797Z,99.90
2023-04-15T05:25:09.815Z,99.90
2023-04-15T05:35:45.442Z,99.90
2023-04-15T05:46:20.904Z,97.80
2023-04-15T05:56:57.583Z,95.10
2023-04-15T06:07:33.352Z,96.50
2023-04-15T06:18:08.727Z,85.30
2023-04-15T06:28:44.437Z,78.80
2023-04-15T06:39:19.808Z,70.00
2023-04-15T06:49:55.576Z,34.10
2023-04-15T07:00:31.287Z,26.50
2023-04-15T07:11:07.399Z,23.60
2023-04-15T07:21:42.778Z,20.80
2023-04-15T07:32:18.841Z,21.50
2023-04-15T07:42:56.256Z,15.60
2023-04-15T07:53:32.943Z,1.00
2023-04-15T08:04:09.178Z,1.00
2023-04-15T08:14:44.933Z,1.00
2023-04-15T08:25:20.535Z,1.00
2023-04-15T08:35:56.717Z,1.00
2023-04-15T08:46:34.701Z,1.00
2023-04-15T08:57:11.557Z,1.00
2023-04-15T09:07:47.146Z,1.00
2023-04-15T09:18:31.003Z,1.00
2023-04-15T09:29:09.135Z,1.00
2023-04-15T09:39:48.299Z,1.00
2023-04-15T09:50:27.094Z,1.00
2023-04-15T10:01:07.516Z,1.00
2023-04-15T10:11:44.848Z,1.00
2023-04-15T10:22:21.353Z,1.00
2023-04-15T10:32:57.429Z,1.00
2023-04-15T10:43:33.208Z,1.00
2023-04-15T10:54:25.174Z,1.00
2023-04-15T11:05:01.766Z,1.00
2023-04-15T11:15:42.587Z,1.00
2023-04-15T11:26:18.285Z,1.00
2023-04-15T11:36:58.746Z,1.00
2023-04-15T11:47:34.577Z,1.00
2023-04-15T11:58:19.681Z,1.00
2023-04-15T12:09:08.386Z,1.00
2023-04-15T12:19:45.408Z,1.00
2023-04-15T12:30:21.209Z,1.00
2023-04-15T12:40:36.769Z,1.00
2023-04-15T12:50:52.258Z,1.00
2023-04-15T13:01:07.522Z,1.00
2023-04-15T13:11:23.007Z,1.00
2023-04-15T13:21:38.250Z,1.00
2023-04-15T13:31:53.766Z,1.00
2023-04-15T13:42:09.122Z,1.00
2023-04-15T13:52:24.473Z,1.00
2023-04-15T14:02:41.195Z,1.00
2023-04-15T14:12:56.509Z,1.00
2023-04-15T14:23:11.876Z,11.70
2023-04-15T14:33:27.263Z,33.40
2023-04-15T14:43:42.526Z,42.60
2023-04-15T14:53:58.093Z,39.50
2023-04-15T15:04:13.577Z,45.80
2023-04-15T15:14:28.841Z,54.80
2023-04-15T15:24:44.158Z,56.30
2023-04-15T15:34:59.561Z,51.90
2023-04-15T15:45:15.572Z,64.00
2023-04-15T15:55:30.788Z,66.30
2023-04-15T16:05:46.981Z,74.50
2023-04-15T16:16:02.228Z,87.80
2023-04-15T16:26:17.629Z,94.80
2023-04-15T16:36:35.216Z,99.90
2023-04-15T16:46:50.264Z,99.90
2023-04-15T16:57:05.825Z,99.90
2023-04-15T17:07:21.445Z,99.90
2023-04-15T17:17:36.646Z,99.90
2023-04-15T17:27:52.042Z,99.90
2023-04-15T17:38:07.443Z,99.90
2023-04-15T17:48:22.878Z,99.90
2023-04-15T17:58:39.143Z,99.90
2023-04-15T18:08:54.813Z,99.90
2023-04-15T18:19:11.005Z,99.90
2023-04-15T18:29:26.580Z,99.90
2023-04-15T18:39:42.224Z,99.90
2023-04-15T18:49:58.300Z,99.90
2023-04-15T19:00:15.720Z,99.90
2023-04-15T19:10:31.290Z,99.90
2023-04-15T19:20:47.085Z,99.90
2023-04-15T19:31:02.701Z,99.90
2023-04-15T19:41:17.966Z,99.90
2023-04-15T19:51:33.276Z,99.90
2023-04-15T20:01:48.973Z,99.90
2023-04-15T20:12:48.353Z,99.90
2023-04-15T20:22:39.833Z,99.90
2023-04-15T20:32:55.169Z,99.90
2023-04-15T20:43:10.460Z,99.90
2023-04-15T20:53:25.829Z,99.90
2023-04-15T21:03:41.492Z,99.90
2023-04-15T21:13:57.788Z,99.90
2023-04-15T21:24:13.152Z,99.90
